createdAt,value
2019-05-15T00:00:21.736Z,59.28
2019-05-15T00:02:48.901Z,59.01
2019-05-15T00:05:18.664Z,59.08
2019-05-15T00:07:45.382Z,59.41
2019-05-15T00:10:12.921Z,59.37
2019-05-15T00:12:40.124Z,59.07
2019-05-15T00:15:09.409Z,58.96
2019-05-15T00:17:39.236Z,58.92
2019-05-15T00:20:06.798Z,59.09
2019-05-15T00:22:33.979Z,59.30
2019-05-15T00:25:01.696Z,59.42
2019-05-15T00:27:28.909Z,59.66
2019-05-15T00:29:57.923Z,59.81
2019-05-15T00:32:25.032Z,59.91
2019-05-15T00:34:52.239Z,59.76
2019-05-15T00:37:19.303Z,59.79
2019-05-15T00:39:48.428Z,59.70
2019-05-15T00:42:15.556Z,59.71
2019-05-15T00:44:42.836Z,59.93
2019-05-15T00:47:10.609Z,60.47
2019-05-15T00:49:38.350Z,61.16
2019-05-15T00:52:05.530Z,61.65
2019-05-15T00:54:32.658Z,61.88
2019-05-15T00:57:00.192Z,61.32
2019-05-15T00:59:29.942Z,61.37
2019-05-15T01:01:56.400Z,61.17
2019-05-15T01:04:23.581Z,61.03
2019-05-15T01:06:52.663Z,60.47
2019-05-15T01:09:19.877Z,60.37
2019-05-15T01:11:48.777Z,60.74
2019-05-15T01:14:18.460Z,60.41
2019-05-15T01:16:45.387Z,61.33
2019-05-15T01:19:14.969Z,61.70
2019-05-15T01:21:41.605Z,61.88
2019-05-15T01:24:08.747Z,61.56
2019-05-15T01:26:38.328Z,61.62
2019-05-15T01:29:05.039Z,62.15
2019-05-15T01:31:32.233Z,62.84
2019-05-15T01:33:59.727Z,63.38
2019-05-15T01:36:28.812Z,63.77
2019-05-15T01:38:58.302Z,64.19
2019-05-15T01:41:25.193Z,64.47
2019-05-15T01:43:52.680Z,64.65
2019-05-15T01:46:19.831Z,64.90
2019-05-15T01:48:49.133Z,64.88
2019-05-15T01:51:18.365Z,64.70
2019-05-15T01:53:47.870Z,64.87
2019-05-15T01:56:14.794Z,64.30
2019-05-15T01:58:42.232Z,64.18
2019-05-15T02:01:09.567Z,64.07
2019-05-15T02:03:38.665Z,64.04
2019-05-15T02:06:08.025Z,64.16
2019-05-15T02:08:34.920Z,64.27
2019-05-15T02:11:02.451Z,63.38
2019-05-15T02:13:29.615Z,63.50
2019-05-15T02:15:58.927Z,63.53
2019-05-15T02:18:28.348Z,63.17
2019-05-15T02:20:55.043Z,63.75
2019-05-15T02:23:22.893Z,64.14
2019-05-15T02:25:50.106Z,64.27
2019-05-15T02:28:18.337Z,64.16
2019-05-15T02:30:45.726Z,64.01
2019-05-15T02:33:12.830Z,64.03
2019-05-15T02:35:40.168Z,63.95
2019-05-15T02:38:10.083Z,63.46
2019-05-15T02:40:40.096Z,63.57
2019-05-15T02:43:05.845Z,63.54
2019-05-15T02:45:36.618Z,63.56
2019-05-15T02:48:02.058Z,63.82
2019-05-15T02:50:30.100Z,63.67
2019-05-15T02:53:00.254Z,63.71
2019-05-15T02:55:29.407Z,63.70
2019-05-15T02:57:55.336Z,63.76
2019-05-15T03:00:37.993Z,63.63
2019-05-15T03:02:51.680Z,63.65
2019-05-15T03:05:19.501Z,63.38
2019-05-15T03:07:49.293Z,63.37
2019-05-15T03:10:15.917Z,63.75
2019-05-15T03:12:43.380Z,64.03
2019-05-15T03:15:10.590Z,64.18
2019-05-15T03:17:40.281Z,63.81
2019-05-15T03:20:10.425Z,62.20
2019-05-15T03:22:39.861Z,62.30
2019-05-15T03:25:10.150Z,62.88
2019-05-15T03:27:35.425Z,62.30
2019-05-15T03:30:02.902Z,62.34
2019-05-15T03:32:42.198Z,62.85
2019-05-15T03:35:04.618Z,62.96
2019-05-15T03:37:33.159Z,62.47
2019-05-15T03:39:59.604Z,62.25
2019-05-15T03:42:29.301Z,62.03
2019-05-15T03:44:56.099Z,61.94
2019-05-15T03:47:23.336Z,62.14
2019-05-15T03:49:52.267Z,62.20
2019-05-15T03:52:19.755Z,62.02
2019-05-15T03:54:49.501Z,61.68
2019-05-15T03:57:20.087Z,61.80
2019-05-15T03:59:48.819Z,61.48
2019-05-15T04:02:14.873Z,61.17
2019-05-15T04:04:42.275Z,61.38
2019-05-15T04:07:09.570Z,61.10
2019-05-15T04:09:38.725Z,60.39
2019-05-15T04:12:09.192Z,59.91
2019-05-15T04:14:35.160Z,59.65
2019-05-15T04:17:02.581Z,59.05
2019-05-15T04:19:29.943Z,59.24
2019-05-15T04:21:59.997Z,59.22
2019-05-15T04:24:30.123Z,58.95
2019-05-15T04:26:59.893Z,58.84
2019-05-15T04:29:28.976Z,52.48
2019-05-15T04:32:02.526Z,50.23
2019-05-15T04:34:24.698Z,51.48
2019-05-15T04:36:51.891Z,52.61
2019-05-15T04:39:19.536Z,53.49
2019-05-15T04:41:49.752Z,54.27
2019-05-15T04:44:19.123Z,54.78
2019-05-15T04:46:45.313Z,55.16
2019-05-15T04:49:12.470Z,51.01
2019-05-15T04:51:39.675Z,44.84
2019-05-15T04:54:09.520Z,39.50
2019-05-15T04:56:35.963Z,35.64
2019-05-15T04:59:03.473Z,31.64
2019-05-15T05:01:30.771Z,29.88
2019-05-15T05:03:58.921Z,27.41
2019-05-15T05:06:29.242Z,25.25
2019-05-15T05:08:55.649Z,23.52
2019-05-15T05:11:24.274Z,21.91
2019-05-15T05:16:19.081Z,19.38
2019-05-15T05:18:48.877Z,18.77
2019-05-15T05:21:15.683Z,19.55
2019-05-15T05:23:42.866Z,19.59
2019-05-15T05:26:11.206Z,18.57
2019-05-15T05:28:38.505Z,17.92
2019-05-15T05:31:08.168Z,17.74
2019-05-15T05:33:35.043Z,16.36
2019-05-15T05:36:02.131Z,15.54
2019-05-15T05:38:29.488Z,14.67
2019-05-15T05:40:58.753Z,14.34
2019-05-15T05:43:25.932Z,15.20
2019-05-15T05:45:53.480Z,14.47
2019-05-15T05:48:20.642Z,14.12
2019-05-15T05:50:49.748Z,13.51
2019-05-15T05:53:16.909Z,13.75
2019-05-15T05:55:43.997Z,13.59
2019-05-15T05:58:11.172Z,13.08
2019-05-15T06:00:40.476Z,12.27
2019-05-15T06:03:08.638Z,11.06
2019-05-15T06:05:36.000Z,10.83
2019-05-15T06:08:03.993Z,10.77
2019-05-15T06:10:31.173Z,11.23
2019-05-15T06:12:58.786Z,10.08
2019-05-15T06:15:28.488Z,9.38
2019-05-15T06:17:55.241Z,9.26
2019-05-15T06:20:22.437Z,8.54
2019-05-15T06:22:49.803Z,8.16
2019-05-15T06:25:19.788Z,8.74
2019-05-15T06:27:48.166Z,8.43
2019-05-15T06:30:22.004Z,8.19
2019-05-15T06:33:03.816Z,10.16
2019-05-15T06:35:19.390Z,10.73
2019-05-15T06:37:48.417Z,12.07
2019-05-15T06:40:18.089Z,11.59
2019-05-15T06:42:45.031Z,10.34
2019-05-15T06:45:12.633Z,9.38
2019-05-15T06:47:39.720Z,9.23
2019-05-15T06:50:08.583Z,8.83
2019-05-15T06:52:38.074Z,8.71
2019-05-15T06:55:05.819Z,8.88
2019-05-15T06:57:33.050Z,8.25
2019-05-15T07:00:00.256Z,8.06
2019-05-15T07:02:28.508Z,8.35
2019-05-15T07:04:58.192Z,8.64
2019-05-15T07:07:25.101Z,7.81
2019-05-15T07:09:52.294Z,7.69
2019-05-15T07:12:19.658Z,7.14
2019-05-15T07:14:48.732Z,6.80
2019-05-15T07:17:17.750Z,7.57
2019-05-15T07:19:44.995Z,8.08
2019-05-15T07:22:12.207Z,8.68
2019-05-15T07:24:39.332Z,8.43
2019-05-15T07:27:08.028Z,7.31
2019-05-15T07:29:35.106Z,6.55
2019-05-15T07:32:02.352Z,6.71
2019-05-15T07:34:29.598Z,7.57
2019-05-15T07:36:58.939Z,7.26
2019-05-15T07:39:28.684Z,7.56
2019-05-15T07:41:57.716Z,7.77
2019-05-15T07:44:24.491Z,9.39
2019-05-15T07:46:51.678Z,9.22
2019-05-15T07:49:18.913Z,8.95
2019-05-15T07:51:48.251Z,8.38
2019-05-15T07:54:15.245Z,7.97
2019-05-15T07:56:42.468Z,8.51
2019-05-15T07:59:09.684Z,8.23
2019-05-15T08:01:38.676Z,6.78
2019-05-15T08:04:22.614Z,6.37
2019-05-15T08:06:35.103Z,5.37
2019-05-15T08:09:04.172Z,5.27
2019-05-15T08:11:31.456Z,6.42
2019-05-15T08:13:58.606Z,6.29
2019-05-15T08:16:25.678Z,5.85
2019-05-15T08:18:53.108Z,5.01
2019-05-15T08:21:20.265Z,4.59
2019-05-15T08:23:48.491Z,4.27
2019-05-15T08:26:17.792Z,4.29
2019-05-15T08:28:45.446Z,4.71
2019-05-15T08:31:12.697Z,5.18
2019-05-15T08:33:39.899Z,6.11
2019-05-15T08:36:08.397Z,5.92
2019-05-15T08:38:38.153Z,5.21
2019-05-15T08:41:04.958Z,4.67
2019-05-15T08:43:32.482Z,4.82
2019-05-15T08:45:59.612Z,4.87
2019-05-15T08:48:27.723Z,4.56
2019-05-15T08:50:55.076Z,4.54
2019-05-15T08:53:22.204Z,5.59
2019-05-15T08:55:49.475Z,5.53
2019-05-15T08:58:20.436Z,5.77
2019-05-15T09:00:45.640Z,6.05
2019-05-15T09:03:12.836Z,5.71
2019-05-15T09:05:39.894Z,5.65
2019-05-15T09:08:09.313Z,5.64
2019-05-15T09:10:38.573Z,6.05
2019-05-15T09:13:05.396Z,5.83
2019-05-15T09:15:32.685Z,6.60
2019-05-15T09:18:09.212Z,6.49
2019-05-15T09:20:28.854Z,6.12
2019-05-15T09:22:58.224Z,6.55
2019-05-15T09:25:25.236Z,8.22
2019-05-15T09:27:52.693Z,9.04
2019-05-15T09:30:19.926Z,9.04
2019-05-15T09:32:48.346Z,9.05
2019-05-15T09:35:18.747Z,8.97
2019-05-15T09:37:46.006Z,8.59
2019-05-15T09:40:13.351Z,8.45
2019-05-15T09:42:40.552Z,8.85
2019-05-15T09:45:08.880Z,9.48
2019-05-15T09:47:39.176Z,9.28
2019-05-15T09:50:05.652Z,9.46
2019-05-15T09:52:32.830Z,11.10
2019-05-15T09:55:00.088Z,12.43
2019-05-15T09:57:30.203Z,13.10
2019-05-15T09:59:58.660Z,13.87
2019-05-15T10:02:28.245Z,15.73
2019-05-15T10:05:06.059Z,18.44
2019-05-15T10:07:23.639Z,20.68
2019-05-15T10:09:52.438Z,22.98
2019-05-15T10:12:19.762Z,23.45
2019-05-15T10:14:49.204Z,24.57
2019-05-15T10:17:18.304Z,25.65
2019-05-15T10:19:45.202Z,27.00
2019-05-15T10:22:12.502Z,27.34
2019-05-15T10:24:40.078Z,27.47
2019-05-15T10:27:08.828Z,28.13
2019-05-15T10:29:36.083Z,27.34
2019-05-15T10:32:03.274Z,28.08
2019-05-15T10:34:30.752Z,27.48
2019-05-15T10:36:58.918Z,28.29
2019-05-15T10:39:28.675Z,28.40
2019-05-15T10:41:55.323Z,26.97
2019-05-15T10:44:22.544Z,27.14
2019-05-15T10:46:50.006Z,26.31
2019-05-15T10:49:18.834Z,26.00
2019-05-15T10:51:46.351Z,26.66
2019-05-15T10:54:13.940Z,26.48
2019-05-15T10:56:41.543Z,26.37
2019-05-15T10:59:09.006Z,26.73
2019-05-15T11:01:38.622Z,27.13
2019-05-15T11:04:05.327Z,26.35
2019-05-15T11:06:32.909Z,26.45
2019-05-15T11:09:00.003Z,26.39
2019-05-15T11:11:27.594Z,26.39
2019-05-15T11:13:54.698Z,27.31
2019-05-15T11:16:21.987Z,27.61
2019-05-15T11:18:49.162Z,27.35
2019-05-15T11:21:18.832Z,27.82
2019-05-15T11:23:45.526Z,28.24
2019-05-15T11:26:12.687Z,28.15
2019-05-15T11:28:40.238Z,27.87
2019-05-15T11:31:10.339Z,27.92
2019-05-15T11:33:38.493Z,28.23
2019-05-15T11:36:06.375Z,28.56
2019-05-15T11:38:33.650Z,28.46
2019-05-15T11:41:00.815Z,28.56
2019-05-15T11:43:29.127Z,28.26
2019-05-15T11:45:58.848Z,28.24
2019-05-15T11:48:26.087Z,27.98
2019-05-15T11:50:53.315Z,28.43
2019-05-15T11:53:20.590Z,28.75
2019-05-15T11:55:48.236Z,28.85
2019-05-15T11:58:15.498Z,28.63
2019-05-15T12:00:42.638Z,29.01
2019-05-15T12:03:09.809Z,28.82
2019-05-15T12:05:38.500Z,28.42
2019-05-15T12:08:08.501Z,28.41
2019-05-15T12:10:35.134Z,28.18
2019-05-15T12:13:02.611Z,28.48
2019-05-15T12:15:29.926Z,28.41
2019-05-15T12:17:59.148Z,27.94
2019-05-15T12:20:28.610Z,28.03
2019-05-15T12:22:55.594Z,27.07
2019-05-15T12:25:22.807Z,26.86
2019-05-15T12:27:50.326Z,26.77
2019-05-15T12:30:19.944Z,26.47
2019-05-15T12:35:16.304Z,26.79
2019-05-15T12:37:43.399Z,27.35
2019-05-15T13:00:10.564Z,26.22
2019-05-15T13:02:38.735Z,26.08
2019-05-15T13:05:08.374Z,26.11
2019-05-15T13:07:37.911Z,25.75
2019-05-15T13:10:08.477Z,25.98
2019-05-15T13:12:35.440Z,25.64
2019-05-15T13:15:02.847Z,24.45
2019-05-15T13:17:30.002Z,23.97
2019-05-15T13:19:58.606Z,24.57
2019-05-15T13:22:28.022Z,24.02
2019-05-15T13:24:55.215Z,23.96
2019-05-15T13:27:22.457Z,24.20
2019-05-15T13:29:49.805Z,24.86
2019-05-15T13:32:17.195Z,25.11
2019-05-15T13:34:44.316Z,25.41
2019-05-15T13:37:11.535Z,25.51
2019-05-15T13:39:39.222Z,25.37
2019-05-15T13:42:09.158Z,25.71
2019-05-15T13:44:38.612Z,24.28
2019-05-15T13:47:05.303Z,24.78
2019-05-15T13:49:32.807Z,24.55
2019-05-15T13:52:00.005Z,25.13
2019-05-15T13:54:28.609Z,25.21
2019-05-15T13:56:58.069Z,24.93
2019-05-15T13:59:25.098Z,25.08
2019-05-15T14:01:52.275Z,23.93
2019-05-15T14:04:19.514Z,23.77
2019-05-15T14:06:48.759Z,24.06
2019-05-15T14:09:15.762Z,24.38
2019-05-15T14:11:43.090Z,24.20
2019-05-15T14:14:10.248Z,24.20
2019-05-15T14:16:38.394Z,23.52
2019-05-15T14:19:08.142Z,23.05
2019-05-15T14:21:34.926Z,23.01
2019-05-15T14:24:02.158Z,23.05
2019-05-15T14:26:29.701Z,23.00
2019-05-15T14:28:58.701Z,22.91
2019-05-15T14:31:27.912Z,22.63
2019-05-15T14:33:57.925Z,23.01
2019-05-15T14:36:24.841Z,22.52
2019-05-15T14:38:52.315Z,22.67
2019-05-15T14:41:19.591Z,22.46
2019-05-15T14:43:48.460Z,22.35
2019-05-15T14:46:15.740Z,21.71
2019-05-15T14:48:43.215Z,21.79
2019-05-15T14:51:10.393Z,21.89
2019-05-15T14:53:38.636Z,21.55
2019-05-15T14:56:08.280Z,21.40
2019-05-15T14:58:35.061Z,20.90
2019-05-15T15:01:04.128Z,21.24
2019-05-15T15:03:31.266Z,20.55
2019-05-15T15:05:58.432Z,20.24
2019-05-15T15:08:25.727Z,20.48
2019-05-15T15:10:52.973Z,20.48
2019-05-15T15:13:20.147Z,20.17
2019-05-15T15:15:48.456Z,19.95
2019-05-15T15:18:15.842Z,19.69
2019-05-15T15:20:42.935Z,19.67
2019-05-15T15:23:10.146Z,19.72
2019-05-15T15:25:39.677Z,19.99
2019-05-15T15:28:08.279Z,20.17
2019-05-15T15:30:37.938Z,20.21
2019-05-15T15:33:04.843Z,20.25
2019-05-15T15:35:31.952Z,20.17
2019-05-15T15:37:59.178Z,20.53
2019-05-15T15:40:28.283Z,20.37
2019-05-15T15:42:57.915Z,20.41
2019-05-15T15:45:24.940Z,21.06
2019-05-15T15:47:52.098Z,21.64
2019-05-15T15:50:19.402Z,20.67
2019-05-15T15:52:48.800Z,19.81
2019-05-15T15:55:18.289Z,19.70
2019-05-15T15:57:45.137Z,19.63
2019-05-15T16:00:14.528Z,20.10
2019-05-15T16:02:41.953Z,20.31
2019-05-15T16:05:10.012Z,20.47
2019-05-15T16:07:38.009Z,21.77
2019-05-15T16:10:08.501Z,22.21
2019-05-15T16:12:38.456Z,21.89
2019-05-15T16:15:08.576Z,22.07
2019-05-15T16:17:35.410Z,21.74
2019-05-15T16:20:03.430Z,22.04
2019-05-15T16:22:30.818Z,21.57
2019-05-15T16:24:58.739Z,21.22
2019-05-15T16:27:28.708Z,21.45
2019-05-15T16:29:58.389Z,21.80
2019-05-15T16:32:25.317Z,22.04
2019-05-15T16:34:52.575Z,21.80
2019-05-15T16:37:19.777Z,21.96
2019-05-15T16:39:48.796Z,21.45
2019-05-15T16:42:18.072Z,21.81
2019-05-15T16:44:45.842Z,21.94
2019-05-15T16:47:13.127Z,21.83
2019-05-15T16:49:40.348Z,21.99
2019-05-15T16:52:09.254Z,21.51
2019-05-15T16:54:38.299Z,20.34
2019-05-15T16:57:05.752Z,20.61
2019-05-15T16:59:35.857Z,21.07
2019-05-15T17:02:02.562Z,21.36
2019-05-15T17:04:29.820Z,21.64
2019-05-15T17:06:58.524Z,21.73
2019-05-15T17:09:27.982Z,22.26
2019-05-15T17:11:55.200Z,22.59
2019-05-15T17:14:22.493Z,23.12
2019-05-15T17:16:49.741Z,23.31
2019-05-15T17:19:18.048Z,23.65
2019-05-15T17:21:48.005Z,23.67
2019-05-15T17:24:14.391Z,23.75
2019-05-15T17:26:41.607Z,23.81
2019-05-15T17:29:08.984Z,23.77
2019-05-15T17:31:37.994Z,24.00
2019-05-15T17:34:05.298Z,23.62
2019-05-15T17:36:32.638Z,23.40
2019-05-15T17:38:59.881Z,24.03
2019-05-15T17:41:28.563Z,24.05
2019-05-15T17:43:57.878Z,24.14
2019-05-15T17:46:25.139Z,24.42
2019-05-15T17:48:56.211Z,24.79
2019-05-15T17:51:21.511Z,25.29
2019-05-15T17:53:48.971Z,25.27
2019-05-15T17:56:16.224Z,25.62
2019-05-15T17:58:43.408Z,25.83
2019-05-15T18:01:10.559Z,26.19
2019-05-15T18:03:39.291Z,26.08
2019-05-15T18:06:06.605Z,26.50
2019-05-15T18:08:34.136Z,25.77
2019-05-15T18:11:01.425Z,26.06
2019-05-15T18:13:28.929Z,26.09
2019-05-15T18:16:01.880Z,26.53
2019-05-15T18:18:25.543Z,26.57
2019-05-15T18:20:52.687Z,26.81
2019-05-15T18:23:19.956Z,27.01
2019-05-15T18:25:49.179Z,27.35
2019-05-15T18:28:18.629Z,27.89
2019-05-15T18:30:47.815Z,28.01
2019-05-15T18:33:15.502Z,28.40
2019-05-15T18:35:42.692Z,28.79
2019-05-15T18:38:09.999Z,29.29
2019-05-15T18:40:38.425Z,29.64
2019-05-15T18:43:05.775Z,30.11
2019-05-15T18:45:33.259Z,30.37
2019-05-15T18:48:00.780Z,30.66
2019-05-15T18:50:28.569Z,31.04
2019-05-15T18:52:58.138Z,31.60
2019-05-15T18:55:25.033Z,31.82
2019-05-15T18:57:52.250Z,31.95
2019-05-15T19:00:19.584Z,32.04
2019-05-15T19:02:47.033Z,32.30
2019-05-15T19:05:14.902Z,32.71
2019-05-15T19:07:42.177Z,32.96
2019-05-15T19:10:09.724Z,33.13
2019-05-15T19:12:38.006Z,33.46
2019-05-15T19:15:09.174Z,33.53
2019-05-15T19:17:38.590Z,33.86
2019-05-15T19:20:08.278Z,34.35
2019-05-15T19:22:35.410Z,34.59
2019-05-15T19:25:03.623Z,34.76
2019-05-15T19:27:30.877Z,34.84
2019-05-15T19:29:59.072Z,34.94
2019-05-15T19:32:27.878Z,34.85
2019-05-15T19:34:55.373Z,35.17
2019-05-15T19:37:22.709Z,35.27
2019-05-15T19:39:49.863Z,35.45
2019-05-15T19:42:18.156Z,35.63
2019-05-15T19:44:45.818Z,35.72
2019-05-15T19:47:13.047Z,35.67
2019-05-15T19:49:40.368Z,35.92
2019-05-15T19:52:08.618Z,35.70
2019-05-15T19:54:37.823Z,36.15
2019-05-15T19:57:05.106Z,36.13
2019-05-15T19:59:32.443Z,36.42
2019-05-15T20:01:59.802Z,36.23
2019-05-15T20:04:27.873Z,36.56
2019-05-15T20:06:55.206Z,36.95
2019-05-15T20:09:23.366Z,36.76
2019-05-15T20:11:50.757Z,36.73
2019-05-15T20:14:18.361Z,36.33
2019-05-15T20:16:47.969Z,36.62
2019-05-15T20:19:14.878Z,36.56
2019-05-15T20:21:42.018Z,36.89
2019-05-15T20:24:09.480Z,37.14
2019-05-15T20:26:38.032Z,37.19
2019-05-15T20:29:05.903Z,37.24
2019-05-15T20:31:33.756Z,37.19
2019-05-15T20:34:05.663Z,37.47
2019-05-15T20:36:30.149Z,37.16
2019-05-15T20:38:58.841Z,37.14
2019-05-15T20:41:26.096Z,37.12
2019-05-15T20:43:53.321Z,37.33
2019-05-15T20:46:20.532Z,37.42
2019-05-15T20:48:48.745Z,37.52
2019-05-15T20:51:18.380Z,37.63
2019-05-15T20:53:45.456Z,37.73
2019-05-15T20:56:12.647Z,37.87
2019-05-15T20:58:40.047Z,38.11
2019-05-15T21:01:09.140Z,38.19
2019-05-15T21:03:36.982Z,38.18
2019-05-15T21:06:04.193Z,38.31
2019-05-15T21:08:31.301Z,38.21
2019-05-15T21:10:59.150Z,38.23
2019-05-15T21:13:27.806Z,38.61
2019-05-15T21:15:55.699Z,38.68
2019-05-15T21:18:24.063Z,38.59
2019-05-15T21:20:51.259Z,38.66
2019-05-15T21:23:18.495Z,38.63
2019-05-15T21:25:48.005Z,38.64
2019-05-15T21:28:14.785Z,38.83
2019-05-15T21:30:42.356Z,38.80
2019-05-15T21:33:09.443Z,38.73
2019-05-15T21:35:38.484Z,38.67
2019-05-15T21:38:05.775Z,38.61
2019-05-15T21:40:32.979Z,38.90
2019-05-15T21:43:00.201Z,39.07
2019-05-15T21:45:28.932Z,39.26
2019-05-15T21:47:58.794Z,39.02
2019-05-15T21:50:25.203Z,39.12
2019-05-15T21:52:52.721Z,39.25
2019-05-15T21:55:19.924Z,39.18
2019-05-15T21:57:47.461Z,39.14
2019-05-15T22:00:21.368Z,39.27
2019-05-15T22:02:49.558Z,39.17
2019-05-15T22:05:18.986Z,39.48
2019-05-15T22:07:47.895Z,39.75
2019-05-15T22:10:15.345Z,40.20
2019-05-15T22:12:42.577Z,40.28
2019-05-15T22:15:09.969Z,40.19
2019-05-15T22:17:38.933Z,40.22
2019-05-15T22:20:08.735Z,40.42
2019-05-15T22:22:35.650Z,40.66
2019-05-15T22:25:03.109Z,41.11
2019-05-15T22:27:31.481Z,41.18
2019-05-15T22:29:58.878Z,41.25
2019-05-15T22:32:26.088Z,41.29
2019-05-15T22:35:06.238Z,41.01
2019-05-15T22:37:22.100Z,40.96
2019-05-15T22:39:49.320Z,41.29
2019-05-15T22:42:18.311Z,41.90
2019-05-15T22:44:47.732Z,42.57
2019-05-15T22:47:14.733Z,42.91
2019-05-15T22:49:42.218Z,42.90
2019-05-15T22:52:09.729Z,43.02
2019-05-15T22:54:38.708Z,43.30
2019-05-15T22:57:06.225Z,43.31
2019-05-15T22:59:33.422Z,43.34
2019-05-15T23:02:00.612Z,43.52
2019-05-15T23:04:28.689Z,43.23
2019-05-15T23:06:55.989Z,43.23
2019-05-15T23:09:23.495Z,43.20
2019-05-15T23:11:50.684Z,43.58
2019-05-15T23:14:18.378Z,44.04
2019-05-15T23:16:48.143Z,44.41
2019-05-15T23:19:14.642Z,44.42
2019-05-15T23:21:41.827Z,44.78
2019-05-15T23:24:08.916Z,44.78
2019-05-15T23:26:36.104Z,44.90
2019-05-15T23:29:03.325Z,45.11
2019-05-15T23:31:30.590Z,45.29
2019-05-15T23:33:57.763Z,45.32
2019-05-15T23:36:24.911Z,45.25
2019-05-15T23:38:52.380Z,45.40
2019-05-15T23:41:19.537Z,45.64
2019-05-15T23:43:48.288Z,45.58
2019-05-15T23:46:15.579Z,45.69
2019-05-15T23:48:42.741Z,45.69
2019-05-15T23:51:10.214Z,45.81
2019-05-15T23:53:37.498Z,45.69
2019-05-15T23:56:04.648Z,45.64
2019-05-15T23:58:31.825Z,45.97
